createdAt,value
2023-02-15T00:00:12.309Z,8.67
2023-02-15T00:03:14.365Z,12.10
2023-02-15T00:06:16.545Z,12.70
2023-02-15T00:09:18.651Z,11.00
2023-02-15T00:12:20.610Z,11.00
2023-02-15T00:15:22.558Z,11.77
2023-02-15T00:18:24.488Z,13.37
2023-02-15T00:21:26.446Z,17.90
2023-02-15T00:24:28.434Z,13.23
2023-02-15T00:27:30.483Z,14.47
2023-02-15T00:30:32.605Z,14.00
2023-02-15T00:33:34.951Z,9.40
2023-02-15T00:36:37.335Z,11.47
2023-02-15T00:39:39.546Z,10.00
2023-02-15T00:42:41.404Z,10.23
2023-02-15T00:45:43.358Z,11.30
2023-02-15T00:48:45.341Z,23.03
2023-02-15T00:51:47.946Z,19.07
2023-02-15T00:54:49.884Z,12.83
2023-02-15T00:57:52.228Z,12.03
2023-02-15T01:00:54.311Z,12.43
2023-02-15T01:03:56.347Z,8.80
2023-02-15T01:06:58.338Z,7.63
2023-02-15T01:10:00.702Z,9.47
2023-02-15T01:13:02.778Z,8.97
2023-02-15T01:16:05.908Z,8.27
2023-02-15T01:19:08.093Z,9.57
2023-02-15T01:22:10.081Z,8.53
2023-02-15T01:25:12.031Z,8.87
2023-02-15T01:28:14.259Z,7.53
2023-02-15T01:31:18.997Z,9.50
2023-02-15T01:34:21.088Z,8.70
2023-02-15T01:37:23.034Z,8.07
2023-02-15T01:40:26.206Z,10.97
2023-02-15T01:43:42.068Z,9.73
2023-02-15T01:46:49.553Z,7.17
2023-02-15T01:49:57.420Z,6.53
2023-02-15T01:53:23.708Z,5.40
2023-02-15T01:56:29.422Z,6.30
2023-02-15T01:59:34.140Z,4.20
2023-02-15T02:02:36.620Z,4.60
2023-02-15T02:05:39.633Z,4.33
2023-02-15T02:08:41.749Z,5.23
2023-02-15T02:11:46.614Z,6.77
2023-02-15T02:14:51.012Z,6.67
2023-02-15T02:18:05.540Z,6.17
2023-02-15T02:21:50.704Z,7.43
2023-02-15T02:25:05.614Z,8.70
2023-02-15T02:28:26.050Z,8.13
2023-02-15T02:31:50.259Z,7.20
2023-02-15T02:35:03.855Z,8.90
2023-02-15T02:38:25.178Z,9.00
2023-02-15T02:41:38.240Z,10.00
2023-02-15T02:44:49.624Z,7.87
2023-02-15T02:48:05.469Z,7.00
2023-02-15T02:51:07.459Z,6.00
2023-02-15T02:54:09.498Z,8.57
2023-02-15T02:57:11.790Z,7.27
2023-02-15T03:00:17.032Z,6.57
2023-02-15T03:03:46.549Z,8.73
2023-02-15T03:06:53.620Z,6.07
2023-02-15T03:09:57.216Z,7.53
2023-02-15T03:12:59.164Z,9.87
2023-02-15T03:16:20.994Z,10.87
2023-02-15T03:19:29.625Z,9.47
2023-02-15T03:22:45.367Z,10.33
2023-02-15T03:25:54.069Z,11.60
2023-02-15T03:28:57.683Z,21.70
2023-02-15T03:32:03.047Z,20.23
2023-02-15T03:35:06.242Z,12.37
2023-02-15T03:38:09.306Z,16.10
2023-02-15T03:41:12.251Z,21.13
2023-02-15T03:44:22.569Z,21.03
2023-02-15T03:47:31.879Z,17.67
2023-02-15T03:50:53.697Z,13.60
2023-02-15T03:53:56.516Z,35.93
2023-02-15T03:57:17.842Z,23.47
2023-02-15T04:00:42.245Z,24.20
2023-02-15T04:03:49.153Z,15.17
2023-02-15T04:06:51.415Z,11.60
2023-02-15T04:10:11.857Z,15.73
2023-02-15T04:13:13.840Z,10.60
2023-02-15T04:16:17.571Z,10.30
2023-02-15T04:19:38.071Z,9.37
2023-02-15T04:22:59.256Z,10.03
2023-02-15T04:26:05.614Z,25.93
2023-02-15T04:29:09.178Z,13.10
2023-02-15T04:32:11.101Z,12.30
2023-02-15T04:35:13.617Z,10.97
2023-02-15T04:38:15.582Z,13.50
2023-02-15T04:41:17.812Z,12.23
2023-02-15T04:44:19.829Z,9.50
2023-02-15T04:47:21.836Z,7.43
2023-02-15T04:50:24.280Z,8.27
2023-02-15T04:53:26.292Z,7.03
2023-02-15T04:56:28.295Z,6.90
2023-02-15T04:59:30.627Z,8.27
2023-02-15T05:02:32.625Z,8.70
2023-02-15T05:05:34.582Z,7.00
2023-02-15T05:08:37.028Z,6.93
2023-02-15T05:11:39.448Z,6.80
2023-02-15T05:14:41.400Z,6.57
2023-02-15T05:17:43.437Z,6.97
2023-02-15T05:20:45.371Z,7.03
2023-02-15T05:23:47.474Z,6.10
2023-02-15T05:27:07.904Z,6.63
2023-02-15T05:30:12.917Z,8.27
2023-02-15T05:33:15.128Z,8.77
2023-02-15T05:36:17.227Z,11.20
2023-02-15T05:39:19.078Z,11.30
2023-02-15T05:42:21.206Z,8.90
2023-02-15T05:45:23.155Z,8.67
2023-02-15T05:48:27.841Z,11.80
2023-02-15T05:51:29.791Z,8.77
2023-02-15T05:54:32.054Z,11.53
2023-02-15T05:57:33.948Z,10.67
2023-02-15T06:00:38.123Z,10.73
2023-02-15T06:03:40.231Z,10.33
2023-02-15T06:06:42.304Z,17.87
2023-02-15T06:09:44.651Z,12.47
2023-02-15T06:12:46.686Z,14.43
2023-02-15T06:15:48.638Z,11.73
2023-02-15T06:18:52.816Z,12.90
2023-02-15T06:21:55.610Z,15.73
2023-02-15T06:24:57.531Z,13.93
2023-02-15T06:27:59.430Z,12.50
2023-02-15T06:31:01.560Z,18.43
2023-02-15T06:34:03.774Z,14.67
2023-02-15T06:37:05.785Z,12.53
2023-02-15T06:40:09.289Z,12.93
2023-02-15T06:43:11.393Z,17.43
2023-02-15T06:46:13.455Z,17.63
2023-02-15T06:49:15.587Z,13.47
2023-02-15T06:52:17.515Z,15.03
2023-02-15T06:55:19.571Z,19.27
2023-02-15T06:58:21.525Z,12.23
2023-02-15T07:01:23.626Z,16.93
2023-02-15T07:04:26.101Z,19.03
2023-02-15T07:07:28.174Z,30.83
2023-02-15T07:10:31.181Z,31.47
2023-02-15T07:13:33.606Z,47.27
2023-02-15T07:16:35.613Z,46.17
2023-02-15T07:19:38.185Z,23.73
2023-02-15T07:22:40.259Z,11.10
2023-02-15T07:25:42.489Z,14.67
2023-02-15T07:28:44.467Z,14.53
2023-02-15T07:31:46.621Z,16.37
2023-02-15T07:34:48.559Z,19.83
2023-02-15T07:37:50.463Z,41.87
2023-02-15T07:40:52.379Z,57.00
2023-02-15T07:43:54.370Z,26.60
2023-02-15T07:46:56.265Z,28.80
2023-02-15T07:49:59.153Z,38.93
2023-02-15T07:53:03.837Z,16.53
2023-02-15T07:56:08.628Z,12.50
2023-02-15T07:59:10.528Z,25.97
2023-02-15T08:02:12.600Z,26.37
2023-02-15T08:05:14.506Z,51.10
2023-02-15T08:08:31.605Z,27.30
2023-02-15T08:11:41.009Z,24.57
2023-02-15T08:14:42.952Z,22.10
2023-02-15T08:17:44.772Z,10.33
2023-02-15T08:20:51.853Z,12.00
2023-02-15T08:23:53.790Z,12.80
2023-02-15T08:26:56.768Z,12.97
2023-02-15T08:29:58.667Z,10.43
2023-02-15T08:33:00.726Z,10.03
2023-02-15T08:36:07.004Z,9.53
2023-02-15T08:39:09.288Z,10.53
2023-02-15T08:42:11.682Z,10.30
2023-02-15T08:45:14.724Z,8.87
2023-02-15T08:48:16.618Z,12.53
2023-02-15T08:51:24.077Z,10.57
2023-02-15T08:54:25.991Z,9.87
2023-02-15T08:57:29.048Z,9.80
2023-02-15T09:00:32.394Z,9.27
2023-02-15T09:03:34.449Z,8.80
2023-02-15T09:06:38.352Z,7.10
2023-02-15T09:09:40.553Z,8.10
2023-02-15T09:12:42.401Z,6.80
2023-02-15T09:15:44.401Z,7.07
2023-02-15T09:18:46.659Z,5.03
2023-02-15T09:21:49.832Z,6.60
2023-02-15T09:24:51.777Z,8.30
2023-02-15T09:27:53.954Z,9.40
2023-02-15T09:30:56.839Z,8.87
2023-02-15T09:34:03.817Z,9.70
2023-02-15T09:37:08.249Z,7.83
2023-02-15T09:40:14.021Z,7.43
2023-02-15T09:43:40.631Z,10.00
2023-02-15T09:46:55.045Z,9.03
2023-02-15T09:50:00.134Z,9.23
2023-02-15T09:53:18.062Z,10.37
2023-02-15T09:56:46.916Z,9.83
2023-02-15T10:00:09.118Z,9.20
2023-02-15T10:03:35.703Z,9.40
2023-02-15T10:06:43.367Z,10.13
2023-02-15T10:10:07.584Z,9.40
2023-02-15T10:13:37.933Z,9.30
2023-02-15T10:17:17.051Z,9.30
2023-02-15T10:20:46.375Z,7.43
2023-02-15T10:24:16.030Z,8.63
2023-02-15T10:27:21.848Z,7.07
2023-02-15T10:30:39.521Z,5.57
2023-02-15T10:33:43.837Z,11.43
2023-02-15T10:37:25.379Z,12.57
2023-02-15T10:41:12.274Z,11.70
2023-02-15T10:44:14.533Z,12.17
2023-02-15T10:47:35.062Z,12.87
2023-02-15T10:51:05.369Z,14.43
2023-02-15T10:54:38.460Z,13.50
2023-02-15T10:57:54.326Z,14.63
2023-02-15T11:01:09.748Z,11.90
2023-02-15T11:04:11.671Z,14.20
2023-02-15T11:07:24.942Z,11.13
2023-02-15T11:10:49.970Z,12.33
2023-02-15T11:13:55.946Z,14.70
2023-02-15T11:17:03.577Z,10.40
2023-02-15T11:20:39.285Z,10.00
2023-02-15T11:23:46.112Z,12.00
2023-02-15T11:27:08.581Z,11.37
2023-02-15T11:30:13.878Z,12.83
2023-02-15T11:33:38.046Z,11.03
2023-02-15T11:36:41.815Z,10.87
2023-02-15T11:39:44.808Z,9.77
2023-02-15T11:42:51.083Z,12.67
2023-02-15T11:45:53.687Z,10.20
2023-02-15T11:48:55.705Z,11.73
2023-02-15T11:51:58.873Z,12.53
2023-02-15T11:55:01.683Z,12.70
2023-02-15T11:58:18.176Z,12.70
2023-02-15T12:01:31.059Z,10.47
2023-02-15T12:04:41.049Z,10.47
2023-02-15T12:07:48.686Z,10.87
2023-02-15T12:10:53.596Z,12.30
2023-02-15T12:14:07.597Z,10.40
2023-02-15T12:17:14.899Z,13.07
2023-02-15T12:20:16.870Z,13.33
2023-02-15T12:23:19.479Z,13.30
2023-02-15T12:26:30.547Z,11.13
2023-02-15T12:29:41.343Z,10.63
2023-02-15T12:32:52.803Z,15.97
2023-02-15T12:36:21.761Z,12.07
2023-02-15T12:39:28.684Z,14.97
2023-02-15T12:42:43.984Z,12.00
2023-02-15T12:45:46.422Z,13.30
2023-02-15T12:48:49.281Z,11.83
2023-02-15T12:51:52.281Z,11.10
2023-02-15T12:54:54.297Z,11.43
2023-02-15T12:58:18.606Z,11.93
2023-02-15T13:01:25.869Z,13.33
2023-02-15T13:04:29.684Z,13.57
2023-02-15T13:07:33.075Z,13.43
2023-02-15T13:10:57.883Z,11.00
2023-02-15T13:14:02.335Z,12.87
2023-02-15T13:17:07.836Z,15.27
2023-02-15T13:20:24.070Z,15.90
2023-02-15T13:23:29.123Z,11.37
2023-02-15T13:26:33.009Z,16.13
2023-02-15T13:29:38.415Z,12.47
2023-02-15T13:32:42.437Z,10.73
2023-02-15T13:35:51.237Z,11.17
2023-02-15T13:39:31.051Z,12.17
2023-02-15T13:42:42.248Z,9.13
2023-02-15T13:45:57.070Z,10.33
2023-02-15T13:49:20.181Z,9.07
2023-02-15T13:52:25.051Z,14.83
2023-02-15T13:55:33.828Z,13.53
2023-02-15T13:58:52.091Z,13.20
2023-02-15T14:02:19.767Z,9.30
2023-02-15T14:05:27.749Z,9.13
2023-02-15T14:08:50.201Z,11.67
2023-02-15T14:11:54.956Z,9.90
2023-02-15T14:14:59.701Z,9.10
2023-02-15T14:18:08.479Z,10.27
2023-02-15T14:21:32.063Z,7.20
2023-02-15T14:24:44.547Z,6.27
2023-02-15T14:28:13.155Z,8.23
2023-02-15T14:31:16.104Z,5.37
2023-02-15T14:34:43.533Z,4.47
2023-02-15T14:38:11.230Z,3.77
2023-02-15T14:41:37.942Z,5.37
2023-02-15T14:45:11.388Z,10.23
2023-02-15T14:48:26.073Z,13.57
2023-02-15T14:51:48.229Z,8.77
2023-02-15T14:54:50.529Z,8.20
2023-02-15T14:58:00.116Z,6.90
2023-02-15T15:01:10.038Z,7.77
2023-02-15T15:04:34.215Z,9.27
2023-02-15T15:07:53.518Z,5.33
2023-02-15T15:10:57.341Z,8.03
2023-02-15T15:14:01.503Z,5.93
2023-02-15T15:17:05.943Z,8.97
2023-02-15T15:20:32.179Z,7.90
2023-02-15T15:23:45.730Z,8.53
2023-02-15T15:26:52.302Z,6.60
2023-02-15T15:29:54.845Z,12.53
2023-02-15T15:32:57.356Z,7.37
2023-02-15T15:36:22.772Z,6.50
2023-02-15T15:39:49.421Z,6.13
2023-02-15T15:43:19.588Z,9.63
2023-02-15T15:46:43.250Z,6.70
2023-02-15T15:49:45.331Z,6.27
2023-02-15T15:53:00.039Z,7.17
2023-02-15T15:56:07.309Z,10.23
2023-02-15T15:59:15.840Z,6.53
2023-02-15T16:02:18.925Z,7.17
2023-02-15T16:05:21.076Z,6.13
2023-02-15T16:08:30.782Z,5.33
2023-02-15T16:11:32.724Z,5.27
2023-02-15T16:14:39.310Z,6.60
2023-02-15T16:17:43.262Z,5.53
2023-02-15T16:21:00.377Z,7.47
2023-02-15T16:24:28.550Z,4.57
2023-02-15T16:27:39.062Z,5.43
2023-02-15T16:30:43.841Z,4.07
2023-02-15T16:33:46.948Z,5.13
2023-02-15T16:36:48.890Z,6.67
2023-02-15T16:39:51.643Z,5.13
2023-02-15T16:42:55.929Z,4.80
2023-02-15T16:46:08.294Z,3.70
2023-02-15T16:49:30.259Z,4.60
2023-02-15T16:52:32.456Z,3.37
2023-02-15T16:55:40.445Z,2.90
2023-02-15T16:58:45.941Z,3.67
2023-02-15T17:01:48.244Z,3.40
2023-02-15T17:05:06.596Z,5.57
2023-02-15T17:08:14.856Z,9.37
2023-02-15T17:11:22.627Z,5.57
2023-02-15T17:14:41.055Z,8.43
2023-02-15T17:17:43.795Z,4.27
2023-02-15T17:20:48.585Z,6.83
2023-02-15T17:23:52.440Z,5.63
2023-02-15T17:27:01.064Z,6.80
2023-02-15T17:30:10.519Z,5.07
2023-02-15T17:33:40.997Z,4.77
2023-02-15T17:36:58.970Z,5.23
2023-02-15T17:40:03.110Z,3.83
2023-02-15T17:43:55.869Z,4.63
2023-02-15T17:47:12.532Z,3.67
2023-02-15T17:50:25.337Z,6.77
2023-02-15T17:53:27.339Z,5.83
2023-02-15T17:56:29.929Z,5.10
2023-02-15T17:59:32.258Z,4.80
2023-02-15T18:02:55.289Z,7.43
2023-02-15T18:06:17.049Z,12.50
2023-02-15T18:09:39.692Z,6.73
2023-02-15T18:12:42.742Z,4.70
2023-02-15T18:15:44.814Z,3.80
2023-02-15T18:18:47.035Z,12.60
2023-02-15T18:21:49.929Z,4.97
2023-02-15T18:24:51.986Z,4.33
2023-02-15T18:27:55.398Z,7.03
2023-02-15T18:30:57.703Z,5.87
2023-02-15T18:34:01.944Z,4.17
2023-02-15T18:37:06.219Z,4.23
2023-02-15T18:40:16.976Z,3.63
2023-02-15T18:43:18.969Z,7.07
2023-02-15T18:46:21.626Z,8.63
2023-02-15T18:49:23.733Z,5.53
2023-02-15T18:52:29.571Z,4.50
2023-02-15T18:55:35.532Z,4.57
2023-02-15T18:58:37.720Z,4.67
2023-02-15T19:01:39.746Z,7.40
2023-02-15T19:04:42.684Z,6.33
2023-02-15T19:07:48.587Z,12.70
2023-02-15T19:10:53.609Z,5.93
2023-02-15T19:13:55.507Z,4.00
2023-02-15T19:17:01.954Z,5.03
2023-02-15T19:20:04.304Z,4.40
2023-02-15T19:23:08.974Z,3.07
2023-02-15T19:26:11.312Z,4.13
2023-02-15T19:29:15.204Z,3.53
2023-02-15T19:32:17.978Z,2.40
2023-02-15T19:35:22.687Z,4.17
2023-02-15T19:38:28.137Z,3.00
2023-02-15T19:41:33.399Z,3.47
2023-02-15T19:44:35.379Z,2.83
2023-02-15T19:47:37.429Z,4.40
2023-02-15T19:50:39.484Z,4.80
2023-02-15T19:53:42.435Z,2.50
2023-02-15T19:56:44.411Z,3.07
2023-02-15T19:59:46.425Z,4.47
2023-02-15T20:02:57.768Z,7.27
2023-02-15T20:06:25.637Z,16.97
2023-02-15T20:09:38.705Z,5.70
2023-02-15T20:12:57.102Z,4.63
2023-02-15T20:16:12.290Z,3.57
2023-02-15T20:19:16.225Z,3.73
2023-02-15T20:22:26.998Z,3.27
2023-02-15T20:25:31.746Z,2.20
2023-02-15T20:28:33.760Z,2.43
2023-02-15T20:31:35.677Z,3.23
2023-02-15T20:34:37.828Z,2.80
2023-02-15T20:37:39.749Z,3.97
2023-02-15T20:41:02.090Z,2.10
2023-02-15T20:44:19.356Z,3.17
2023-02-15T20:47:21.341Z,3.17
2023-02-15T20:50:31.478Z,3.43
2023-02-15T20:53:33.879Z,1.43
2023-02-15T20:56:37.782Z,2.60
2023-02-15T20:59:41.268Z,5.47
2023-02-15T21:02:43.200Z,2.33
2023-02-15T21:05:45.884Z,2.73
2023-02-15T21:08:47.952Z,2.47
2023-02-15T21:11:52.912Z,3.97
2023-02-15T21:14:55.254Z,5.43
2023-02-15T21:17:58.990Z,2.30
2023-02-15T21:21:05.682Z,1.77
2023-02-15T21:24:14.545Z,2.07
2023-02-15T21:27:16.913Z,1.80
2023-02-15T21:30:20.728Z,1.33
2023-02-15T21:33:22.636Z,5.07
2023-02-15T21:36:25.578Z,1.87
2023-02-15T21:39:36.514Z,1.97
2023-02-15T21:42:57.271Z,2.50
2023-02-15T21:46:18.427Z,1.53
2023-02-15T21:49:20.911Z,1.73
2023-02-15T21:52:23.938Z,1.37
2023-02-15T21:55:26.570Z,1.27
2023-02-15T21:58:33.859Z,4.27
2023-02-15T22:01:35.918Z,2.73
2023-02-15T22:04:39.380Z,1.77
2023-02-15T22:07:41.533Z,3.37
2023-02-15T22:10:44.460Z,4.30
2023-02-15T22:13:48.224Z,4.93
2023-02-15T22:16:50.122Z,2.40
2023-02-15T22:19:52.923Z,1.37
2023-02-15T22:22:54.828Z,3.10
2023-02-15T22:26:02.174Z,1.50
2023-02-15T22:29:04.076Z,2.17
2023-02-15T22:32:06.646Z,2.43
2023-02-15T22:35:17.040Z,0.80
2023-02-15T22:38:19.513Z,1.47
2023-02-15T22:41:24.053Z,2.20
2023-02-15T22:44:30.319Z,3.53
2023-02-15T22:47:32.637Z,3.40
2023-02-15T22:50:37.043Z,1.70
2023-02-15T22:53:39.810Z,4.70
2023-02-15T22:56:51.897Z,1.77
2023-02-15T22:59:54.038Z,2.53
2023-02-15T23:02:56.378Z,3.30
2023-02-15T23:05:58.243Z,4.07
2023-02-15T23:09:01.905Z,2.47
2023-02-15T23:12:06.688Z,2.47
2023-02-15T23:15:12.830Z,2.17
2023-02-15T23:18:33.181Z,3.83
2023-02-15T23:21:35.651Z,2.47
2023-02-15T23:24:37.606Z,3.57
2023-02-15T23:27:58.414Z,6.47
2023-02-15T23:31:00.454Z,1.60
2023-02-15T23:34:18.885Z,2.43
2023-02-15T23:37:20.769Z,2.07
2023-02-15T23:40:41.631Z,2.17
2023-02-15T23:43:46.913Z,0.57
2023-02-15T23:46:49.832Z,1.13
2023-02-15T23:49:51.762Z,2.50
2023-02-15T23:52:55.038Z,1.40
2023-02-15T23:55:58.162Z,3.00
2023-02-15T23:59:00.667Z,1.17
